createdAt,value
2018-05-26T00:02:02.147Z,6.60
2018-05-26T00:04:28.909Z,6.00
2018-05-26T00:06:55.646Z,5.80
2018-05-26T00:09:23.084Z,5.37
2018-05-26T00:11:49.810Z,5.65
2018-05-26T00:14:16.523Z,6.00
2018-05-26T00:16:43.255Z,7.35
2018-05-26T00:19:09.971Z,5.80
2018-05-26T00:21:36.695Z,6.20
2018-05-26T00:24:03.458Z,5.82
2018-05-26T00:26:30.196Z,5.33
2018-05-26T00:28:56.920Z,5.60
2018-05-26T00:31:23.660Z,5.15
2018-05-26T00:33:50.373Z,6.57
2018-05-26T00:36:17.118Z,5.87
2018-05-26T00:38:43.827Z,6.97
2018-05-26T00:41:10.538Z,6.80
2018-05-26T00:43:37.350Z,5.62
2018-05-26T00:46:04.080Z,6.50
2018-05-26T00:48:30.859Z,5.45
2018-05-26T00:50:57.685Z,5.07
2018-05-26T00:53:24.419Z,5.30
2018-05-26T00:55:51.230Z,6.00
2018-05-26T00:58:18.008Z,6.82
2018-05-26T01:00:44.776Z,5.82
2018-05-26T01:03:11.488Z,7.12
2018-05-26T01:05:38.203Z,6.60
2018-05-26T01:08:04.950Z,8.52
2018-05-26T01:10:31.692Z,5.87
2018-05-26T01:12:58.468Z,5.60
2018-05-26T01:15:25.268Z,7.10
2018-05-26T01:17:51.995Z,5.85
2018-05-26T01:20:18.716Z,6.22
2018-05-26T01:22:45.446Z,5.70
2018-05-26T01:25:12.156Z,5.80
2018-05-26T01:27:38.900Z,5.32
2018-05-26T01:30:05.611Z,5.55
2018-05-26T01:32:32.360Z,5.60
2018-05-26T01:34:59.127Z,5.35
2018-05-26T01:37:25.838Z,5.00
2018-05-26T01:39:52.560Z,7.32
2018-05-26T01:42:19.306Z,5.75
2018-05-26T01:44:46.023Z,5.80
2018-05-26T01:47:12.759Z,6.40
2018-05-26T01:49:39.471Z,6.57
2018-05-26T01:52:06.216Z,10.63
2018-05-26T01:54:32.951Z,5.87
2018-05-26T01:56:59.683Z,8.48
2018-05-26T01:59:26.422Z,8.38
2018-05-26T02:01:53.128Z,6.18
2018-05-26T02:04:19.875Z,6.15
2018-05-26T02:06:46.607Z,6.40
2018-05-26T02:09:13.316Z,6.87
2018-05-26T02:11:40.043Z,6.40
2018-05-26T02:14:06.755Z,6.53
2018-05-26T02:16:33.522Z,8.23
2018-05-26T02:19:00.253Z,6.60
2018-05-26T02:21:26.984Z,6.05
2018-05-26T02:23:53.793Z,6.43
2018-05-26T02:26:20.546Z,7.03
2018-05-26T02:28:47.255Z,6.00
2018-05-26T02:31:13.991Z,6.05
2018-05-26T02:33:41.228Z,6.15
2018-05-26T02:36:08.057Z,5.75
2018-05-26T02:38:34.782Z,6.45
2018-05-26T02:41:01.523Z,6.78
2018-05-26T02:43:28.236Z,6.32
2018-05-26T02:45:54.956Z,6.40
2018-05-26T02:48:21.710Z,9.40
2018-05-26T02:50:48.413Z,5.57
2018-05-26T02:53:15.123Z,5.55
2018-05-26T02:55:41.859Z,5.40
2018-05-26T02:58:08.570Z,7.87
2018-05-26T03:00:35.281Z,6.30
2018-05-26T03:03:02.045Z,5.95
2018-05-26T03:05:34.391Z,8.90
2018-05-26T03:08:06.896Z,6.82
2018-05-26T03:10:39.487Z,7.57
2018-05-26T03:13:11.861Z,6.97
2018-05-26T03:15:38.568Z,6.97
2018-05-26T03:18:08.895Z,8.18
2018-05-26T03:20:35.615Z,7.80
2018-05-26T03:23:02.359Z,7.12
2018-05-26T03:25:29.087Z,6.25
2018-05-26T03:27:55.859Z,7.57
2018-05-26T03:30:22.603Z,7.07
2018-05-26T03:32:49.326Z,9.57
2018-05-26T03:35:16.036Z,7.07
2018-05-26T03:37:42.755Z,7.18
2018-05-26T03:40:09.458Z,7.22
2018-05-26T03:42:36.192Z,7.18
2018-05-26T03:45:02.964Z,7.00
2018-05-26T03:47:29.675Z,6.22
2018-05-26T03:49:56.403Z,6.87
2018-05-26T03:52:23.139Z,7.43
2018-05-26T03:55:09.483Z,8.05
2018-05-26T03:57:41.912Z,8.07
2018-05-26T04:00:10.323Z,9.32
2018-05-26T04:02:37.081Z,6.85
2018-05-26T04:05:03.796Z,6.45
2018-05-26T04:07:30.511Z,6.35
2018-05-26T04:09:57.276Z,7.05
2018-05-26T04:12:24.002Z,6.45
2018-05-26T04:14:50.731Z,7.15
2018-05-26T04:17:17.440Z,8.95
2018-05-26T04:19:45.059Z,6.80
2018-05-26T04:22:11.773Z,10.32
2018-05-26T04:24:38.508Z,7.00
2018-05-26T04:27:05.265Z,6.50
2018-05-26T04:29:31.997Z,8.40
2018-05-26T04:31:58.739Z,9.20
2018-05-26T04:34:25.508Z,6.60
2018-05-26T04:36:52.222Z,7.22
2018-05-26T04:39:18.948Z,7.57
2018-05-26T04:41:45.659Z,7.30
2018-05-26T04:44:12.399Z,8.48
2018-05-26T04:46:39.115Z,8.23
2018-05-26T04:49:05.831Z,7.50
2018-05-26T04:51:32.564Z,7.30
2018-05-26T04:53:59.294Z,7.65
2018-05-26T04:56:26.066Z,8.43
2018-05-26T04:58:52.784Z,7.00
2018-05-26T05:01:19.494Z,8.57
2018-05-26T05:03:46.235Z,8.45
2018-05-26T05:06:12.949Z,7.40
2018-05-26T05:08:39.656Z,6.77
2018-05-26T05:11:06.392Z,7.70
2018-05-26T05:13:33.109Z,8.07
2018-05-26T05:15:59.845Z,7.33
2018-05-26T05:18:26.883Z,9.97
2018-05-26T05:20:53.582Z,8.03
2018-05-26T05:23:20.284Z,7.80
2018-05-26T05:25:47.019Z,8.87
2018-05-26T05:28:13.727Z,9.20
2018-05-26T05:30:40.434Z,7.37
2018-05-26T05:33:07.200Z,8.83
2018-05-26T05:35:33.910Z,8.30
2018-05-26T05:38:00.616Z,7.43
2018-05-26T05:40:27.367Z,8.73
2018-05-26T05:42:54.098Z,8.90
2018-05-26T05:45:20.806Z,8.13
2018-05-26T05:47:47.516Z,7.80
2018-05-26T05:50:14.239Z,8.60
2018-05-26T05:52:40.948Z,8.17
2018-05-26T05:55:07.686Z,7.80
2018-05-26T05:57:34.409Z,8.10
2018-05-26T06:00:01.134Z,9.30
2018-05-26T06:02:27.988Z,8.50
2018-05-26T06:04:55.403Z,7.80
2018-05-26T06:07:23.276Z,8.40
2018-05-26T06:09:51.215Z,8.00
2018-05-26T06:12:18.045Z,7.77
2018-05-26T06:14:45.735Z,8.10
2018-05-26T06:17:13.662Z,8.60
2018-05-26T06:19:41.660Z,7.97
2018-05-26T06:22:10.220Z,8.43
2018-05-26T06:24:38.001Z,8.37
2018-05-26T06:27:04.801Z,9.27
2018-05-26T06:29:31.526Z,8.13
2018-05-26T06:31:58.335Z,8.60
2018-05-26T06:34:25.047Z,8.93
2018-05-26T06:36:51.783Z,10.23
2018-05-26T06:39:18.506Z,9.30
2018-05-26T06:41:45.215Z,8.60
2018-05-26T06:44:11.939Z,9.27
2018-05-26T06:46:38.676Z,9.50
2018-05-26T06:49:05.431Z,8.63
2018-05-26T06:51:32.183Z,9.03
2018-05-26T06:53:58.898Z,8.90
2018-05-26T06:56:25.673Z,8.83
2018-05-26T06:58:52.379Z,8.80
2018-05-26T07:01:19.111Z,8.57
2018-05-26T07:03:45.826Z,9.07
2018-05-26T07:06:14.012Z,9.70
2018-05-26T07:08:41.220Z,10.00
2018-05-26T07:11:08.989Z,9.50
2018-05-26T07:13:35.913Z,9.10
2018-05-26T07:16:02.988Z,10.53
2018-05-26T07:18:30.611Z,9.80
2018-05-26T07:20:59.020Z,10.20
2018-05-26T07:23:25.767Z,9.83
2018-05-26T07:25:52.808Z,10.40
2018-05-26T07:28:19.984Z,10.00
2018-05-26T07:30:47.379Z,9.90
2018-05-26T07:33:14.110Z,10.80
2018-05-26T07:35:41.199Z,10.10
2018-05-26T07:38:08.902Z,9.50
2018-05-26T07:40:35.884Z,9.30
2018-05-26T07:43:02.739Z,9.90
2018-05-26T07:45:29.479Z,10.07
2018-05-26T07:47:56.194Z,10.10
2018-05-26T07:50:22.899Z,9.00
2018-05-26T07:52:49.627Z,9.53
2018-05-26T07:55:16.331Z,9.77
2018-05-26T07:57:43.065Z,10.13
2018-05-26T08:00:09.838Z,9.60
2018-05-26T08:02:36.553Z,9.47
2018-05-26T08:05:03.300Z,8.63
2018-05-26T08:07:30.057Z,9.33
2018-05-26T08:09:56.825Z,10.23
2018-05-26T08:12:23.566Z,7.90
2018-05-26T08:14:50.290Z,8.77
2018-05-26T08:17:17.081Z,8.90
2018-05-26T08:19:43.754Z,8.00
2018-05-26T08:22:10.464Z,9.93
2018-05-26T08:24:37.193Z,8.53
2018-05-26T08:27:03.899Z,9.07
2018-05-26T08:29:30.608Z,9.33
2018-05-26T08:31:57.344Z,9.00
2018-05-26T08:34:24.070Z,8.50
2018-05-26T08:36:50.796Z,9.53
2018-05-26T08:39:17.551Z,8.40
2018-05-26T08:41:44.251Z,8.87
2018-05-26T08:44:10.979Z,8.10
2018-05-26T08:46:37.716Z,9.87
2018-05-26T08:49:04.512Z,7.73
2018-05-26T08:51:31.265Z,7.70
2018-05-26T08:53:57.972Z,8.80
2018-05-26T08:56:24.773Z,8.70
2018-05-26T08:58:51.475Z,8.73
2018-05-26T09:01:18.173Z,8.07
2018-05-26T09:03:44.919Z,8.77
2018-05-26T09:06:11.619Z,9.07
2018-05-26T09:08:38.326Z,8.70
2018-05-26T09:11:05.075Z,9.10
2018-05-26T09:13:31.825Z,10.73
2018-05-26T09:15:58.585Z,9.83
2018-05-26T09:18:25.325Z,9.33
2018-05-26T09:20:52.051Z,9.50
2018-05-26T09:23:18.767Z,9.30
2018-05-26T09:25:45.536Z,9.30
2018-05-26T09:28:12.248Z,8.37
2018-05-26T09:30:38.954Z,9.00
2018-05-26T09:33:05.904Z,9.40
2018-05-26T09:35:32.634Z,8.80
2018-05-26T09:37:59.351Z,9.00
2018-05-26T09:40:26.105Z,8.17
2018-05-26T09:42:52.816Z,8.37
2018-05-26T09:45:19.561Z,8.73
2018-05-26T09:47:46.273Z,9.40
2018-05-26T09:50:12.982Z,9.97
2018-05-26T09:52:39.718Z,8.57
2018-05-26T09:55:06.441Z,8.80
2018-05-26T09:57:33.193Z,9.73
2018-05-26T09:59:59.924Z,8.70
2018-05-26T10:02:26.697Z,8.70
2018-05-26T10:04:53.404Z,10.00
2018-05-26T10:07:20.159Z,10.10
2018-05-26T10:09:46.902Z,10.00
2018-05-26T10:12:13.606Z,9.27
2018-05-26T10:14:40.342Z,8.47
2018-05-26T10:17:07.048Z,8.70
2018-05-26T10:19:33.753Z,8.07
2018-05-26T10:22:00.479Z,7.77
2018-05-26T10:24:27.192Z,8.97
2018-05-26T10:26:53.935Z,7.77
2018-05-26T10:29:20.635Z,9.20
2018-05-26T10:31:47.338Z,8.67
2018-05-26T10:34:14.060Z,8.50
2018-05-26T10:36:40.780Z,8.77
2018-05-26T10:39:07.499Z,8.70
2018-05-26T10:41:34.251Z,8.50
2018-05-26T10:44:00.969Z,8.20
2018-05-26T10:46:28.426Z,9.30
2018-05-26T10:48:55.146Z,8.93
2018-05-26T10:51:21.851Z,9.33
2018-05-26T10:53:48.584Z,8.20
2018-05-26T10:56:15.299Z,8.03
2018-05-26T10:58:42.006Z,8.30
2018-05-26T11:01:08.740Z,9.57
2018-05-26T11:03:35.455Z,8.40
2018-05-26T11:06:02.269Z,8.73
2018-05-26T11:08:29.093Z,8.27
2018-05-26T11:10:55.833Z,8.77
2018-05-26T11:13:22.702Z,9.60
2018-05-26T11:15:49.482Z,8.50
2018-05-26T11:18:16.210Z,8.00
2018-05-26T11:20:42.920Z,8.37
2018-05-26T11:23:09.660Z,7.47
2018-05-26T11:25:36.792Z,7.90
2018-05-26T11:28:04.147Z,9.17
2018-05-26T11:30:30.892Z,7.90
2018-05-26T11:32:57.683Z,8.47
2018-05-26T11:35:24.602Z,8.63
2018-05-26T11:37:51.437Z,8.87
2018-05-26T11:40:18.159Z,8.90
2018-05-26T11:42:45.152Z,9.00
2018-05-26T11:45:11.924Z,8.30
2018-05-26T11:47:38.647Z,7.50
2018-05-26T11:50:05.386Z,7.93
2018-05-26T11:52:32.096Z,8.27
2018-05-26T11:54:58.810Z,7.90
2018-05-26T11:57:25.531Z,7.43
2018-05-26T11:59:52.235Z,8.87
2018-05-26T12:02:18.976Z,9.07
2018-05-26T12:04:45.778Z,8.60
2018-05-26T12:07:12.680Z,8.00
2018-05-26T12:09:39.397Z,8.30
2018-05-26T12:12:06.127Z,8.33
2018-05-26T12:14:32.854Z,7.67
2018-05-26T12:17:01.951Z,8.67
2018-05-26T12:19:28.867Z,8.37
2018-05-26T12:21:55.957Z,9.07
2018-05-26T12:24:22.669Z,8.30
2018-05-26T12:26:49.378Z,8.07
2018-05-26T12:29:16.111Z,10.20
2018-05-26T12:31:42.815Z,8.13
2018-05-26T12:34:09.541Z,8.47
2018-05-26T12:36:36.320Z,9.47
2018-05-26T12:39:03.038Z,15.33
2018-05-26T12:41:29.756Z,8.53
2018-05-26T12:43:56.513Z,8.00
2018-05-26T12:46:23.462Z,8.07
2018-05-26T12:48:50.184Z,8.40
2018-05-26T12:51:16.931Z,8.53
2018-05-26T12:53:43.747Z,7.90
2018-05-26T12:56:10.675Z,8.20
2018-05-26T12:58:37.695Z,8.50
2018-05-26T13:01:04.678Z,7.30
2018-05-26T13:03:31.695Z,7.70
2018-05-26T13:05:58.524Z,7.53
2018-05-26T13:08:25.311Z,7.47
2018-05-26T13:10:52.019Z,7.77
2018-05-26T13:13:19.584Z,8.53
2018-05-26T13:15:46.308Z,8.40
2018-05-26T13:18:13.007Z,7.90
2018-05-26T13:20:39.757Z,8.87
2018-05-26T13:23:06.458Z,8.30
2018-05-26T13:25:33.159Z,8.30
2018-05-26T13:27:59.904Z,7.07
2018-05-26T13:30:26.676Z,7.47
2018-05-26T13:32:53.402Z,7.57
2018-05-26T13:35:20.164Z,7.53
2018-05-26T13:37:46.861Z,7.77
2018-05-26T13:40:13.562Z,8.00
2018-05-26T13:42:40.279Z,7.37
2018-05-26T13:45:07.016Z,8.40
2018-05-26T13:47:33.742Z,8.10
2018-05-26T13:50:00.525Z,8.20
2018-05-26T13:52:27.329Z,8.33
2018-05-26T13:54:54.088Z,8.03
2018-05-26T13:57:20.814Z,8.73
2018-05-26T13:59:47.537Z,7.47
2018-05-26T14:02:14.285Z,7.87
2018-05-26T14:04:40.986Z,8.13
2018-05-26T14:07:07.723Z,8.37
2018-05-26T14:09:34.448Z,7.80
2018-05-26T14:12:01.206Z,8.30
2018-05-26T14:14:27.951Z,7.20
2018-05-26T14:16:54.666Z,7.57
2018-05-26T14:19:21.368Z,7.90
2018-05-26T14:21:48.114Z,8.47
2018-05-26T14:24:14.818Z,7.97
2018-05-26T14:26:41.519Z,8.23
2018-05-26T14:29:08.269Z,7.47
2018-05-26T14:31:34.980Z,9.67
2018-05-26T14:34:01.698Z,9.23
2018-05-26T14:36:28.457Z,8.80
2018-05-26T14:38:55.196Z,7.97
2018-05-26T14:41:21.902Z,7.57
2018-05-26T14:43:48.635Z,7.20
2018-05-26T14:46:15.339Z,8.00
2018-05-26T14:48:42.067Z,7.43
2018-05-26T14:51:08.767Z,8.03
2018-05-26T14:53:38.164Z,7.13
2018-05-26T14:56:04.983Z,8.40
2018-05-26T14:58:31.855Z,7.30
2018-05-26T15:00:58.644Z,7.33
2018-05-26T15:03:25.374Z,8.20
2018-05-26T15:05:52.078Z,8.37
2018-05-26T15:08:18.792Z,8.23
2018-05-26T15:10:45.518Z,7.77
2018-05-26T15:13:12.252Z,7.50
2018-05-26T15:15:38.967Z,7.83
2018-05-26T15:18:05.687Z,7.50
2018-05-26T15:20:32.422Z,8.20
2018-05-26T15:22:59.146Z,7.53
2018-05-26T15:25:26.704Z,8.43
2018-05-26T15:27:53.439Z,8.30
2018-05-26T15:30:20.153Z,7.60
2018-05-26T15:32:46.890Z,8.13
2018-05-26T15:35:13.598Z,7.70
2018-05-26T15:37:40.340Z,8.37
2018-05-26T15:40:07.058Z,9.37
2018-05-26T15:42:33.804Z,9.37
2018-05-26T15:45:00.564Z,9.17
2018-05-26T15:47:27.451Z,8.30
2018-05-26T15:49:54.191Z,10.17
2018-05-26T15:52:20.919Z,8.43
2018-05-26T15:54:47.684Z,7.83
2018-05-26T15:57:14.388Z,7.77
2018-05-26T15:59:41.148Z,8.20
2018-05-26T16:02:07.879Z,9.10
2018-05-26T16:04:34.615Z,7.60
2018-05-26T16:07:01.340Z,8.27
2018-05-26T16:09:28.087Z,8.60
2018-05-26T16:11:54.799Z,8.67
2018-05-26T16:14:21.522Z,8.23
2018-05-26T16:16:48.264Z,7.57
2018-05-26T16:19:14.978Z,8.13
2018-05-26T16:21:41.721Z,8.30
2018-05-26T16:24:08.436Z,8.63
2018-05-26T16:26:35.264Z,8.67
2018-05-26T16:29:02.022Z,8.00
2018-05-26T16:31:28.816Z,8.33
2018-05-26T16:33:55.522Z,8.40
2018-05-26T16:36:22.237Z,8.17
2018-05-26T16:38:49.263Z,9.17
2018-05-26T16:41:16.004Z,8.43
2018-05-26T16:43:42.710Z,9.03
2018-05-26T16:46:09.415Z,8.20
2018-05-26T16:48:36.143Z,9.13
2018-05-26T16:51:02.856Z,8.73
2018-05-26T16:53:29.570Z,7.53
2018-05-26T16:55:56.304Z,8.57
2018-05-26T16:58:23.012Z,8.83
2018-05-26T17:00:49.746Z,8.73
2018-05-26T17:03:16.461Z,8.80
2018-05-26T17:05:43.200Z,9.30
2018-05-26T17:08:09.918Z,9.43
2018-05-26T17:10:36.657Z,7.90
2018-05-26T17:13:03.394Z,8.37
2018-05-26T17:15:30.103Z,8.90
2018-05-26T17:17:56.859Z,7.70
2018-05-26T17:20:23.583Z,7.70
2018-05-26T17:22:50.318Z,8.20
2018-05-26T17:25:17.036Z,9.00
2018-05-26T17:27:43.775Z,8.03
2018-05-26T17:30:10.504Z,8.63
2018-05-26T17:32:37.249Z,10.40
2018-05-26T17:35:03.982Z,8.90
2018-05-26T17:37:30.720Z,9.43
2018-05-26T17:39:57.445Z,9.30
2018-05-26T17:42:24.171Z,9.67
2018-05-26T17:44:50.910Z,9.90
2018-05-26T17:47:17.642Z,11.73
2018-05-26T17:49:44.381Z,10.23
2018-05-26T17:52:11.137Z,9.87
2018-05-26T17:54:37.883Z,10.03
2018-05-26T17:57:04.599Z,10.00
2018-05-26T17:59:31.420Z,9.20
2018-05-26T18:01:58.159Z,9.97
2018-05-26T18:04:24.874Z,9.40
2018-05-26T18:06:51.616Z,10.43
2018-05-26T18:09:18.333Z,9.83
2018-05-26T18:11:45.090Z,9.57
2018-05-26T18:14:11.799Z,9.80
2018-05-26T18:16:38.532Z,9.43
2018-05-26T18:19:05.286Z,9.60
2018-05-26T18:21:32.011Z,10.03
2018-05-26T18:23:58.775Z,10.00
2018-05-26T18:26:25.534Z,9.63
2018-05-26T18:28:52.246Z,10.33
2018-05-26T18:31:19.002Z,11.60
2018-05-26T18:33:45.743Z,10.43
2018-05-26T18:36:12.469Z,10.80
2018-05-26T18:38:39.227Z,11.93
2018-05-26T18:41:05.947Z,9.90
2018-05-26T18:43:32.701Z,10.40
2018-05-26T18:45:59.461Z,9.50
2018-05-26T18:48:26.170Z,9.80
2018-05-26T18:50:52.891Z,10.17
2018-05-26T18:53:19.636Z,10.40
2018-05-26T18:55:46.363Z,9.30
2018-05-26T18:58:13.083Z,9.73
2018-05-26T19:00:39.824Z,9.03
2018-05-26T19:03:06.550Z,8.50
2018-05-26T19:05:33.255Z,8.33
2018-05-26T19:07:59.976Z,7.90
2018-05-26T19:10:26.758Z,8.40
2018-05-26T19:12:53.472Z,8.57
2018-05-26T19:15:20.196Z,8.90
2018-05-26T19:17:46.930Z,8.10
2018-05-26T19:20:13.705Z,7.70
2018-05-26T19:22:41.203Z,7.90
2018-05-26T19:25:08.024Z,8.13
2018-05-26T19:27:34.758Z,13.07
2018-05-26T19:30:01.536Z,8.50
2018-05-26T19:32:28.251Z,8.40
2018-05-26T19:34:54.958Z,8.30
2018-05-26T19:37:21.698Z,7.60
2018-05-26T19:39:48.429Z,7.70
2018-05-26T19:42:15.160Z,9.70
2018-05-26T19:44:41.872Z,9.30
2018-05-26T19:47:08.599Z,8.43
2018-05-26T19:49:35.306Z,8.53
2018-05-26T19:52:02.084Z,6.97
2018-05-26T19:54:28.812Z,7.43
2018-05-26T19:56:55.550Z,8.93
2018-05-26T19:59:22.295Z,6.50
2018-05-26T20:01:49.000Z,7.97
2018-05-26T20:04:15.771Z,7.80
2018-05-26T20:06:42.491Z,7.40
2018-05-26T20:09:09.200Z,8.70
2018-05-26T20:11:35.953Z,9.40
2018-05-26T20:14:02.701Z,10.83
2018-05-26T20:16:29.485Z,9.60
2018-05-26T20:18:56.191Z,8.77
2018-05-26T20:21:22.911Z,8.10
2018-05-26T20:23:49.638Z,7.30
2018-05-26T20:26:16.478Z,7.23
2018-05-26T20:28:43.199Z,7.27
2018-05-26T20:31:09.940Z,7.90
2018-05-26T20:33:36.676Z,7.97
2018-05-26T20:36:03.417Z,7.80
2018-05-26T20:38:30.144Z,8.63
2018-05-26T20:40:56.904Z,7.80
2018-05-26T20:43:23.610Z,7.03
2018-05-26T20:45:50.331Z,7.30
2018-05-26T20:48:17.080Z,7.27
2018-05-26T20:50:43.825Z,7.87
2018-05-26T20:53:10.527Z,6.77
2018-05-26T20:55:37.258Z,7.00
2018-05-26T20:58:04.010Z,6.60
2018-05-26T21:00:30.732Z,7.00
2018-05-26T21:02:57.462Z,6.73
2018-05-26T21:05:24.182Z,7.90
2018-05-26T21:07:50.923Z,6.87
2018-05-26T21:10:17.635Z,7.07
2018-05-26T21:12:44.423Z,6.50
2018-05-26T21:15:11.216Z,6.73
2018-05-26T21:17:37.899Z,6.53
2018-05-26T21:20:04.608Z,6.87
2018-05-26T21:22:31.346Z,6.83
2018-05-26T21:24:58.091Z,7.00
2018-05-26T21:27:24.958Z,7.10
2018-05-26T21:29:51.662Z,7.60
2018-05-26T21:32:18.367Z,7.23
2018-05-26T21:34:45.128Z,6.83
2018-05-26T21:37:11.835Z,7.20
2018-05-26T21:39:38.639Z,7.70
2018-05-26T21:42:05.376Z,7.53
2018-05-26T21:44:32.307Z,7.80
2018-05-26T21:46:59.088Z,7.80
2018-05-26T21:49:25.791Z,8.90
2018-05-26T21:51:52.515Z,6.87
2018-05-26T21:54:19.246Z,9.77
2018-05-26T21:56:45.975Z,8.47
2018-05-26T21:59:12.719Z,7.83
2018-05-26T22:01:39.441Z,7.57
2018-05-26T22:04:06.231Z,7.70
2018-05-26T22:06:32.938Z,7.67
2018-05-26T22:08:59.763Z,7.70
2018-05-26T22:11:26.887Z,7.83
2018-05-26T22:13:53.795Z,7.67
2018-05-26T22:16:20.646Z,7.60
2018-05-26T22:18:47.509Z,8.23
2018-05-26T22:21:15.062Z,8.90
2018-05-26T22:23:41.868Z,10.47
2018-05-26T22:26:09.742Z,9.13
2018-05-26T22:28:37.027Z,9.10
2018-05-26T22:31:04.094Z,9.30
2018-05-26T22:33:31.094Z,8.97
2018-05-26T22:35:58.453Z,11.03
2018-05-26T22:38:25.813Z,9.17
2018-05-26T22:40:53.480Z,8.80
2018-05-26T22:43:20.613Z,9.40
2018-05-26T22:45:48.863Z,9.07
2018-05-26T22:48:15.648Z,12.50
2018-05-26T22:50:42.576Z,10.30
2018-05-26T22:53:10.156Z,11.23
2018-05-26T22:55:37.406Z,9.50
2018-05-26T22:58:04.970Z,11.33
2018-05-26T23:00:32.209Z,9.07
2018-05-26T23:02:59.293Z,9.47
2018-05-26T23:05:27.066Z,10.50
2018-05-26T23:07:54.391Z,10.47
2018-05-26T23:10:22.334Z,9.50
2018-05-26T23:12:49.462Z,8.73
2018-05-26T23:15:16.179Z,9.07
2018-05-26T23:17:43.747Z,8.90
2018-05-26T23:20:10.969Z,9.27
2018-05-26T23:22:38.316Z,10.63
2018-05-26T23:25:05.933Z,8.97
2018-05-26T23:27:33.689Z,8.80
2018-05-26T23:30:00.757Z,9.43
2018-05-26T23:32:28.575Z,8.53
2018-05-26T23:34:55.459Z,9.30
2018-05-26T23:37:22.718Z,10.07
2018-05-26T23:39:49.462Z,9.30
2018-05-26T23:42:16.438Z,9.50
2018-05-26T23:44:43.179Z,11.27
2018-05-26T23:47:09.887Z,10.63
2018-05-26T23:49:36.614Z,10.23
2018-05-26T23:52:03.353Z,10.07
2018-05-26T23:54:30.067Z,10.20
2018-05-26T23:56:56.909Z,9.80
2018-05-26T23:59:23.640Z,9.00
